sensor_id;sensor_type;location;lat;lon;timestamp;temperature;humidity
65985;HTU21D;52748;51.112;5.880;2023-04-19T00:00:41;21.13;55.13
65985;HTU21D;52748;51.112;5.880;2023-04-19T00:03:10;21.10;55.26
65985;HTU21D;52748;51.112;5.880;2023-04-19T00:05:36;21.08;55.26
65985;HTU21D;52748;51.112;5.880;2023-04-19T00:08:04;21.08;55.33
65985;HTU21D;52748;51.112;5.880;2023-04-19T00:10:30;21.08;55.39
65985;HTU21D;52748;51.112;5.880;2023-04-19T00:12:56;21.09;55.42
65985;HTU21D;52748;51.112;5.880;2023-04-19T00:15:22;21.07;55.44
65985;HTU21D;52748;51.112;5.880;2023-04-19T00:17:48;21.08;55.41
65985;HTU21D;52748;51.112;5.880;2023-04-19T00:20:13;21.07;55.45
65985;HTU21D;52748;51.112;5.880;2023-04-19T00:22:39;21.06;55.50
65985;HTU21D;52748;51.112;5.880;2023-04-19T00:25:05;21.07;55.61
65985;HTU21D;52748;51.112;5.880;2023-04-19T00:27:32;21.06;55.63
65985;HTU21D;52748;51.112;5.880;2023-04-19T00:29:58;21.06;55.66
65985;HTU21D;52748;51.112;5.880;2023-04-19T00:32:24;21.07;55.71
65985;HTU21D;52748;51.112;5.880;2023-04-19T00:34:50;21.06;55.74
65985;HTU21D;52748;51.112;5.880;2023-04-19T00:37:16;21.06;55.67
65985;HTU21D;52748;51.112;5.880;2023-04-19T00:39:42;21.06;55.71
65985;HTU21D;52748;51.112;5.880;2023-04-19T00:42:07;21.06;55.67
65985;HTU21D;52748;51.112;5.880;2023-04-19T00:44:33;21.07;55.58
65985;HTU21D;52748;51.112;5.880;2023-04-19T00:47:00;21.06;55.64
65985;HTU21D;52748;51.112;5.880;2023-04-19T00:49:26;21.05;55.67
65985;HTU21D;52748;51.112;5.880;2023-04-19T00:51:53;21.05;55.71
65985;HTU21D;52748;51.112;5.880;2023-04-19T00:54:19;21.06;55.78
65985;HTU21D;52748;51.112;5.880;2023-04-19T00:56:48;21.05;55.82
65985;HTU21D;52748;51.112;5.880;2023-04-19T00:59:16;21.05;55.84
65985;HTU21D;52748;51.112;5.880;2023-04-19T01:01:45;21.05;55.78
65985;HTU21D;52748;51.112;5.880;2023-04-19T01:04:12;21.05;55.78
65985;HTU21D;52748;51.112;5.880;2023-04-19T01:06:39;21.06;55.71
65985;HTU21D;52748;51.112;5.880;2023-04-19T01:09:05;21.05;55.79
65985;HTU21D;52748;51.112;5.880;2023-04-19T01:11:31;21.05;55.84
65985;HTU21D;52748;51.112;5.880;2023-04-19T01:13:57;21.04;55.91
65985;HTU21D;52748;51.112;5.880;2023-04-19T01:16:26;21.04;55.94
65985;HTU21D;52748;51.112;5.880;2023-04-19T01:18:53;21.03;55.92
65985;HTU21D;52748;51.112;5.880;2023-04-19T01:21:19;21.04;55.93
65985;HTU21D;52748;51.112;5.880;2023-04-19T01:23:47;21.04;55.90
65985;HTU21D;52748;51.112;5.880;2023-04-19T01:26:14;21.04;55.85
65985;HTU21D;52748;51.112;5.880;2023-04-19T01:28:41;21.03;55.90
65985;HTU21D;52748;51.112;5.880;2023-04-19T01:31:08;21.04;55.87
65985;HTU21D;52748;51.112;5.880;2023-04-19T01:33:35;21.03;55.93
65985;HTU21D;52748;51.112;5.880;2023-04-19T01:36:01;21.03;56.03
65985;HTU21D;52748;51.112;5.880;2023-04-19T01:38:27;21.03;56.10
65985;HTU21D;52748;51.112;5.880;2023-04-19T01:40:53;21.03;56.16
65985;HTU21D;52748;51.112;5.880;2023-04-19T01:43:23;21.03;56.09
65985;HTU21D;52748;51.112;5.880;2023-04-19T01:45:49;21.03;56.07
65985;HTU21D;52748;51.112;5.880;2023-04-19T01:48:14;21.02;56.10
65985;HTU21D;52748;51.112;5.880;2023-04-19T01:50:40;21.03;56.10
65985;HTU21D;52748;51.112;5.880;2023-04-19T01:53:06;21.02;56.13
65985;HTU21D;52748;51.112;5.880;2023-04-19T01:55:32;21.02;56.13
65985;HTU21D;52748;51.112;5.880;2023-04-19T01:57:57;21.02;56.13
65985;HTU21D;52748;51.112;5.880;2023-04-19T02:00:23;21.05;55.96
65985;HTU21D;52748;51.112;5.880;2023-04-19T02:02:49;21.03;56.10
65985;HTU21D;52748;51.112;5.880;2023-04-19T02:05:15;21.03;56.17
65985;HTU21D;52748;51.112;5.880;2023-04-19T02:07:41;21.01;56.26
65985;HTU21D;52748;51.112;5.880;2023-04-19T02:10:09;21.02;56.29
65985;HTU21D;52748;51.112;5.880;2023-04-19T02:12:41;21.01;56.29
65985;HTU21D;52748;51.112;5.880;2023-04-19T02:15:07;21.02;56.28
65985;HTU21D;52748;51.112;5.880;2023-04-19T02:17:34;21.01;56.29
65985;HTU21D;52748;51.112;5.880;2023-04-19T02:20:00;21.01;56.26
65985;HTU21D;52748;51.112;5.880;2023-04-19T02:22:26;21.01;56.26
65985;HTU21D;52748;51.112;5.880;2023-04-19T02:24:52;21.00;56.27
65985;HTU21D;52748;51.112;5.880;2023-04-19T02:27:18;21.00;56.28
65985;HTU21D;52748;51.112;5.880;2023-04-19T02:29:44;21.00;56.31
65985;HTU21D;52748;51.112;5.880;2023-04-19T02:32:11;21.00;56.46
65985;HTU21D;52748;51.112;5.880;2023-04-19T02:34:37;20.99;56.45
65985;HTU21D;52748;51.112;5.880;2023-04-19T02:37:04;21.00;56.41
65985;HTU21D;52748;51.112;5.880;2023-04-19T02:39:30;20.99;56.42
65985;HTU21D;52748;51.112;5.880;2023-04-19T02:41:56;20.99;56.40
65985;HTU21D;52748;51.112;5.880;2023-04-19T02:44:22;20.98;56.52
65985;HTU21D;52748;51.112;5.880;2023-04-19T02:46:51;20.99;56.60
65985;HTU21D;52748;51.112;5.880;2023-04-19T02:49:18;20.99;56.59
65985;HTU21D;52748;51.112;5.880;2023-04-19T02:51:44;20.99;56.69
65985;HTU21D;52748;51.112;5.880;2023-04-19T02:54:12;21.00;56.61
65985;HTU21D;52748;51.112;5.880;2023-04-19T02:56:39;20.99;56.59
65985;HTU21D;52748;51.112;5.880;2023-04-19T02:59:05;20.98;56.56
65985;HTU21D;52748;51.112;5.880;2023-04-19T03:01:32;20.96;56.54
65985;HTU21D;52748;51.112;5.880;2023-04-19T03:03:59;20.98;56.54
65985;HTU21D;52748;51.112;5.880;2023-04-19T03:06:25;20.98;56.52
65985;HTU21D;52748;51.112;5.880;2023-04-19T03:08:51;20.98;56.54
65985;HTU21D;52748;51.112;5.880;2023-04-19T03:11:18;20.98;56.50
65985;HTU21D;52748;51.112;5.880;2023-04-19T03:13:45;20.96;56.53
65985;HTU21D;52748;51.112;5.880;2023-04-19T03:16:12;20.98;56.54
65985;HTU21D;52748;51.112;5.880;2023-04-19T03:18:38;20.99;56.55
65985;HTU21D;52748;51.112;5.880;2023-04-19T03:21:04;20.98;56.52
65985;HTU21D;52748;51.112;5.880;2023-04-19T03:23:43;20.96;56.52
65985;HTU21D;52748;51.112;5.880;2023-04-19T03:26:09;20.96;56.60
65985;HTU21D;52748;51.112;5.880;2023-04-19T03:28:40;20.95;56.60
65985;HTU21D;52748;51.112;5.880;2023-04-19T03:31:28;20.95;56.45
65985;HTU21D;52748;51.112;5.880;2023-04-19T03:33:54;20.94;56.44
65985;HTU21D;52748;51.112;5.880;2023-04-19T03:36:25;20.96;56.43
65985;HTU21D;52748;51.112;5.880;2023-04-19T03:38:51;20.95;56.39
65985;HTU21D;52748;51.112;5.880;2023-04-19T03:41:22;20.95;56.39
65985;HTU21D;52748;51.112;5.880;2023-04-19T03:43:54;20.94;56.42
65985;HTU21D;52748;51.112;5.880;2023-04-19T03:46:22;20.95;56.45
65985;HTU21D;52748;51.112;5.880;2023-04-19T03:48:48;20.94;56.46
65985;HTU21D;52748;51.112;5.880;2023-04-19T03:51:14;20.93;56.51
65985;HTU21D;52748;51.112;5.880;2023-04-19T03:53:40;20.93;56.48
65985;HTU21D;52748;51.112;5.880;2023-04-19T03:56:06;20.94;56.45
65985;HTU21D;52748;51.112;5.880;2023-04-19T03:58:32;20.93;56.50
65985;HTU21D;52748;51.112;5.880;2023-04-19T04:01:04;20.95;56.40
65985;HTU21D;52748;51.112;5.880;2023-04-19T04:03:31;20.93;56.44
65985;HTU21D;52748;51.112;5.880;2023-04-19T04:05:57;20.93;56.52
65985;HTU21D;52748;51.112;5.880;2023-04-19T04:08:23;20.92;56.60
65985;HTU21D;52748;51.112;5.880;2023-04-19T04:10:49;20.92;56.64
65985;HTU21D;52748;51.112;5.880;2023-04-19T04:13:15;20.92;56.59
65985;HTU21D;52748;51.112;5.880;2023-04-19T04:15:49;20.91;56.59
65985;HTU21D;52748;51.112;5.880;2023-04-19T04:18:16;20.92;56.63
65985;HTU21D;52748;51.112;5.880;2023-04-19T04:20:42;20.90;56.61
65985;HTU21D;52748;51.112;5.880;2023-04-19T04:23:10;20.92;56.57
65985;HTU21D;52748;51.112;5.880;2023-04-19T04:25:39;20.90;56.61
65985;HTU21D;52748;51.112;5.880;2023-04-19T04:28:09;20.91;56.66
65985;HTU21D;52748;51.112;5.880;2023-04-19T04:30:35;20.91;56.72
65985;HTU21D;52748;51.112;5.880;2023-04-19T04:33:02;20.91;56.70
65985;HTU21D;52748;51.112;5.880;2023-04-19T04:35:28;20.90;56.68
65985;HTU21D;52748;51.112;5.880;2023-04-19T04:38:04;20.90;56.68
65985;HTU21D;52748;51.112;5.880;2023-04-19T04:40:32;20.91;56.66
65985;HTU21D;52748;51.112;5.880;2023-04-19T04:42:58;20.90;56.70
65985;HTU21D;52748;51.112;5.880;2023-04-19T04:45:26;20.90;56.76
65985;HTU21D;52748;51.112;5.880;2023-04-19T04:47:54;20.90;56.74
65985;HTU21D;52748;51.112;5.880;2023-04-19T04:50:20;20.90;56.68
65985;HTU21D;52748;51.112;5.880;2023-04-19T04:52:48;20.90;56.67
65985;HTU21D;52748;51.112;5.880;2023-04-19T04:55:18;20.90;56.69
65985;HTU21D;52748;51.112;5.880;2023-04-19T04:57:44;20.91;56.69
65985;HTU21D;52748;51.112;5.880;2023-04-19T05:00:33;20.91;56.77
65985;HTU21D;52748;51.112;5.880;2023-04-19T05:03:02;20.91;56.79
65985;HTU21D;52748;51.112;5.880;2023-04-19T05:05:30;20.91;56.84
65985;HTU21D;52748;51.112;5.880;2023-04-19T05:07:56;20.91;56.93
65985;HTU21D;52748;51.112;5.880;2023-04-19T05:10:21;20.91;57.06
65985;HTU21D;52748;51.112;5.880;2023-04-19T05:12:47;20.92;57.04
65985;HTU21D;52748;51.112;5.880;2023-04-19T05:15:13;20.91;57.04
65985;HTU21D;52748;51.112;5.880;2023-04-19T05:17:46;20.92;57.06
65985;HTU21D;52748;51.112;5.880;2023-04-19T05:20:12;20.91;57.06
65985;HTU21D;52748;51.112;5.880;2023-04-19T05:22:39;20.93;56.94
65985;HTU21D;52748;51.112;5.880;2023-04-19T05:25:09;20.90;57.57
65985;HTU21D;52748;51.112;5.880;2023-04-19T05:27:35;20.88;57.67
65985;HTU21D;52748;51.112;5.880;2023-04-19T05:30:03;20.89;57.64
65985;HTU21D;52748;51.112;5.880;2023-04-19T05:32:29;20.88;54.54
65985;HTU21D;52748;51.112;5.880;2023-04-19T05:34:57;20.80;51.68
65985;HTU21D;52748;51.112;5.880;2023-04-19T05:37:23;20.73;50.17
65985;HTU21D;52748;51.112;5.880;2023-04-19T05:39:49;20.66;49.39
65985;HTU21D;52748;51.112;5.880;2023-04-19T05:42:14;20.58;49.09
65985;HTU21D;52748;51.112;5.880;2023-04-19T05:44:40;20.51;49.05
65985;HTU21D;52748;51.112;5.880;2023-04-19T05:47:07;20.44;49.05
65985;HTU21D;52748;51.112;5.880;2023-04-19T05:49:53;20.37;48.79
65985;HTU21D;52748;51.112;5.880;2023-04-19T05:52:29;20.25;48.89
65985;HTU21D;52748;51.112;5.880;2023-04-19T05:54:57;20.19;49.92
65985;HTU21D;52748;51.112;5.880;2023-04-19T05:57:23;20.22;51.29
65985;HTU21D;52748;51.112;5.880;2023-04-19T05:59:49;20.30;52.11
65985;HTU21D;52748;51.112;5.880;2023-04-19T06:02:18;20.34;52.81
65985;HTU21D;52748;51.112;5.880;2023-04-19T06:04:44;20.37;53.39
65985;HTU21D;52748;51.112;5.880;2023-04-19T06:07:10;20.43;53.79
65985;HTU21D;52748;51.112;5.880;2023-04-19T06:09:45;20.48;54.01
65985;HTU21D;52748;51.112;5.880;2023-04-19T06:12:14;20.51;54.46
65985;HTU21D;52748;51.112;5.880;2023-04-19T06:14:39;20.54;55.29
65985;HTU21D;52748;51.112;5.880;2023-04-19T06:17:05;20.56;55.93
65985;HTU21D;52748;51.112;5.880;2023-04-19T06:19:31;20.61;56.57
65985;HTU21D;52748;51.112;5.880;2023-04-19T06:21:59;20.64;57.00
65985;HTU21D;52748;51.112;5.880;2023-04-19T06:24:25;20.69;57.01
65985;HTU21D;52748;51.112;5.880;2023-04-19T06:26:51;20.73;57.18
65985;HTU21D;52748;51.112;5.880;2023-04-19T06:29:16;20.77;57.22
65985;HTU21D;52748;51.112;5.880;2023-04-19T06:31:45;20.81;57.11
65985;HTU21D;52748;51.112;5.880;2023-04-19T06:34:11;20.85;57.03
65985;HTU21D;52748;51.112;5.880;2023-04-19T06:36:37;20.89;56.96
65985;HTU21D;52748;51.112;5.880;2023-04-19T06:39:03;20.90;56.96
65985;HTU21D;52748;51.112;5.880;2023-04-19T06:41:28;20.94;56.92
65985;HTU21D;52748;51.112;5.880;2023-04-19T06:43:54;20.96;56.88
65985;HTU21D;52748;51.112;5.880;2023-04-19T06:46:20;21.00;56.82
65985;HTU21D;52748;51.112;5.880;2023-04-19T06:48:46;21.01;56.76
65985;HTU21D;52748;51.112;5.880;2023-04-19T06:51:12;21.04;56.71
65985;HTU21D;52748;51.112;5.880;2023-04-19T06:53:38;21.05;56.71
65985;HTU21D;52748;51.112;5.880;2023-04-19T06:56:04;21.08;56.67
65985;HTU21D;52748;51.112;5.880;2023-04-19T06:58:30;21.10;56.65
65985;HTU21D;52748;51.112;5.880;2023-04-19T07:00:59;21.11;56.64
65985;HTU21D;52748;51.112;5.880;2023-04-19T07:03:28;21.14;56.62
65985;HTU21D;52748;51.112;5.880;2023-04-19T07:05:54;21.14;56.61
65985;HTU21D;52748;51.112;5.880;2023-04-19T07:08:24;21.16;56.56
65985;HTU21D;52748;51.112;5.880;2023-04-19T07:10:50;21.19;56.53
65985;HTU21D;52748;51.112;5.880;2023-04-19T07:13:16;21.20;56.48
65985;HTU21D;52748;51.112;5.880;2023-04-19T07:15:41;21.22;56.40
65985;HTU21D;52748;51.112;5.880;2023-04-19T07:18:07;21.22;56.38
65985;HTU21D;52748;51.112;5.880;2023-04-19T07:20:35;21.23;56.36
65985;HTU21D;52748;51.112;5.880;2023-04-19T07:23:01;21.27;56.31
65985;HTU21D;52748;51.112;5.880;2023-04-19T07:25:27;21.27;56.26
65985;HTU21D;52748;51.112;5.880;2023-04-19T07:27:53;21.27;56.33
65985;HTU21D;52748;51.112;5.880;2023-04-19T07:30:19;21.25;56.26
65985;HTU21D;52748;51.112;5.880;2023-04-19T07:32:45;21.23;51.35
65985;HTU21D;52748;51.112;5.880;2023-04-19T07:35:11;21.22;50.88
65985;HTU21D;52748;51.112;5.880;2023-04-19T07:37:37;21.20;51.30
65985;HTU21D;52748;51.112;5.880;2023-04-19T07:40:04;21.19;51.21
65985;HTU21D;52748;51.112;5.880;2023-04-19T07:42:30;21.16;50.83
65985;HTU21D;52748;51.112;5.880;2023-04-19T07:44:55;21.11;47.97
65985;HTU21D;52748;51.112;5.880;2023-04-19T07:47:21;21.07;46.99
65985;HTU21D;52748;51.112;5.880;2023-04-19T07:49:51;20.99;46.40
65985;HTU21D;52748;51.112;5.880;2023-04-19T07:52:17;20.93;46.62
65985;HTU21D;52748;51.112;5.880;2023-04-19T07:54:43;20.89;46.30
65985;HTU21D;52748;51.112;5.880;2023-04-19T07:57:08;20.87;47.39
65985;HTU21D;52748;51.112;5.880;2023-04-19T07:59:34;20.91;48.50
65985;HTU21D;52748;51.112;5.880;2023-04-19T08:02:00;20.92;49.34
65985;HTU21D;52748;51.112;5.880;2023-04-19T08:04:26;20.95;49.95
65985;HTU21D;52748;51.112;5.880;2023-04-19T08:06:52;20.98;50.51
65985;HTU21D;52748;51.112;5.880;2023-04-19T08:09:17;20.99;50.96
65985;HTU21D;52748;51.112;5.880;2023-04-19T08:11:44;21.02;51.33
65985;HTU21D;52748;51.112;5.880;2023-04-19T08:14:10;21.02;51.69
65985;HTU21D;52748;51.112;5.880;2023-04-19T08:16:36;21.03;51.93
65985;HTU21D;52748;51.112;5.880;2023-04-19T08:19:02;21.06;52.17
65985;HTU21D;52748;51.112;5.880;2023-04-19T08:21:28;21.08;52.34
65985;HTU21D;52748;51.112;5.880;2023-04-19T08:23:53;21.11;52.44
65985;HTU21D;52748;51.112;5.880;2023-04-19T08:26:21;21.15;52.49
65985;HTU21D;52748;51.112;5.880;2023-04-19T08:28:47;21.15;52.56
65985;HTU21D;52748;51.112;5.880;2023-04-19T08:31:15;21.17;52.62
65985;HTU21D;52748;51.112;5.880;2023-04-19T08:33:41;21.20;52.63
65985;HTU21D;52748;51.112;5.880;2023-04-19T08:36:07;21.20;52.63
65985;HTU21D;52748;51.112;5.880;2023-04-19T08:38:33;21.22;52.54
65985;HTU21D;52748;51.112;5.880;2023-04-19T08:40:59;21.25;52.43
65985;HTU21D;52748;51.112;5.880;2023-04-19T08:43:29;21.28;52.37
65985;HTU21D;52748;51.112;5.880;2023-04-19T08:45:58;21.29;52.32
65985;HTU21D;52748;51.112;5.880;2023-04-19T08:48:26;21.31;52.29
65985;HTU21D;52748;51.112;5.880;2023-04-19T08:50:53;21.32;52.25
65985;HTU21D;52748;51.112;5.880;2023-04-19T08:53:21;21.35;52.14
65985;HTU21D;52748;51.112;5.880;2023-04-19T08:55:48;21.37;51.96
65985;HTU21D;52748;51.112;5.880;2023-04-19T08:58:14;21.39;51.85
65985;HTU21D;52748;51.112;5.880;2023-04-19T09:00:41;21.39;51.77
65985;HTU21D;52748;51.112;5.880;2023-04-19T09:03:07;21.43;51.72
65985;HTU21D;52748;51.112;5.880;2023-04-19T09:05:35;21.42;51.69
65985;HTU21D;52748;51.112;5.880;2023-04-19T09:10:55;21.43;51.47
65985;HTU21D;52748;51.112;5.880;2023-04-19T09:13:22;21.45;51.33
65985;HTU21D;52748;51.112;5.880;2023-04-19T09:15:48;21.44;51.24
65985;HTU21D;52748;51.112;5.880;2023-04-19T09:18:14;21.45;51.14
65985;HTU21D;52748;51.112;5.880;2023-04-19T09:20:42;21.45;51.04
65985;HTU21D;52748;51.112;5.880;2023-04-19T09:23:14;21.45;50.98
65985;HTU21D;52748;51.112;5.880;2023-04-19T09:26:00;21.45;50.90
65985;HTU21D;52748;51.112;5.880;2023-04-19T09:28:27;21.45;50.85
65985;HTU21D;52748;51.112;5.880;2023-04-19T09:30:54;21.45;50.81
65985;HTU21D;52748;51.112;5.880;2023-04-19T09:33:35;21.45;50.78
65985;HTU21D;52748;51.112;5.880;2023-04-19T09:36:05;21.45;50.76
65985;HTU21D;52748;51.112;5.880;2023-04-19T09:38:50;21.45;50.70
65985;HTU21D;52748;51.112;5.880;2023-04-19T09:41:16;21.45;50.71
65985;HTU21D;52748;51.112;5.880;2023-04-19T09:43:42;21.45;50.73
65985;HTU21D;52748;51.112;5.880;2023-04-19T09:46:08;21.45;50.68
65985;HTU21D;52748;51.112;5.880;2023-04-19T09:48:34;21.45;50.66
65985;HTU21D;52748;51.112;5.880;2023-04-19T09:51:01;21.46;50.61
65985;HTU21D;52748;51.112;5.880;2023-04-19T09:53:29;21.45;50.58
65985;HTU21D;52748;51.112;5.880;2023-04-19T09:55:57;21.46;50.58
65985;HTU21D;52748;51.112;5.880;2023-04-19T09:58:23;21.51;50.30
65985;HTU21D;52748;51.112;5.880;2023-04-19T10:00:49;21.46;50.28
65985;HTU21D;52748;51.112;5.880;2023-04-19T10:03:18;21.45;50.21
65985;HTU21D;52748;51.112;5.880;2023-04-19T10:05:44;21.46;50.16
65985;HTU21D;52748;51.112;5.880;2023-04-19T10:08:12;21.42;51.06
65985;HTU21D;52748;51.112;5.880;2023-04-19T10:10:39;21.40;51.75
65985;HTU21D;52748;51.112;5.880;2023-04-19T10:13:12;21.40;51.90
65985;HTU21D;52748;51.112;5.880;2023-04-19T10:15:40;21.40;51.82
65985;HTU21D;52748;51.112;5.880;2023-04-19T10:18:08;21.39;51.72
65985;HTU21D;52748;51.112;5.880;2023-04-19T10:23:19;21.40;50.98
65985;HTU21D;52748;51.112;5.880;2023-04-19T10:25:46;21.40;50.70
65985;HTU21D;52748;51.112;5.880;2023-04-19T10:28:14;21.42;50.52
65985;HTU21D;52748;51.112;5.880;2023-04-19T10:30:59;21.43;50.66
65985;HTU21D;52748;51.112;5.880;2023-04-19T10:33:36;21.44;50.85
65985;HTU21D;52748;51.112;5.880;2023-04-19T10:36:02;21.45;50.98
65985;HTU21D;52748;51.112;5.880;2023-04-19T10:41:06;21.45;51.14
65985;HTU21D;52748;51.112;5.880;2023-04-19T10:43:38;21.47;51.17
65985;HTU21D;52748;51.112;5.880;2023-04-19T10:46:13;21.48;51.14
65985;HTU21D;52748;51.112;5.880;2023-04-19T10:48:49;21.49;51.12
65985;HTU21D;52748;51.112;5.880;2023-04-19T10:51:36;21.51;51.07
65985;HTU21D;52748;51.112;5.880;2023-04-19T10:54:08;21.52;50.98
65985;HTU21D;52748;51.112;5.880;2023-04-19T11:01:44;21.57;50.97
65985;HTU21D;52748;51.112;5.880;2023-04-19T11:04:11;21.61;50.85
65985;HTU21D;52748;51.112;5.880;2023-04-19T11:06:59;21.63;50.78
65985;HTU21D;52748;51.112;5.880;2023-04-19T11:09:32;21.64;50.73
65985;HTU21D;52748;51.112;5.880;2023-04-19T11:14:39;21.64;50.47
65985;HTU21D;52748;51.112;5.880;2023-04-19T11:17:24;21.67;50.28
65985;HTU21D;52748;51.112;5.880;2023-04-19T11:19:53;21.69;50.14
65985;HTU21D;52748;51.112;5.880;2023-04-19T11:22:44;21.70;49.93
65985;HTU21D;52748;51.112;5.880;2023-04-19T11:25:18;21.70;49.77
65985;HTU21D;52748;51.112;5.880;2023-04-19T11:27:50;21.72;49.56
65985;HTU21D;52748;51.112;5.880;2023-04-19T11:30:19;21.72;50.48
65985;HTU21D;52748;51.112;5.880;2023-04-19T11:32:52;21.73;47.96
65985;HTU21D;52748;51.112;5.880;2023-04-19T11:35:23;21.67;40.81
65985;HTU21D;52748;51.112;5.880;2023-04-19T11:37:51;21.62;38.36
65985;HTU21D;52748;51.112;5.880;2023-04-19T11:40:19;21.57;36.47
65985;HTU21D;52748;51.112;5.880;2023-04-19T11:42:46;21.53;40.01
65985;HTU21D;52748;51.112;5.880;2023-04-19T11:45:26;21.49;43.15
65985;HTU21D;52748;51.112;5.880;2023-04-19T11:47:54;21.50;44.48
65985;HTU21D;52748;51.112;5.880;2023-04-19T11:50:33;21.52;45.04
65985;HTU21D;52748;51.112;5.880;2023-04-19T11:53:10;21.55;45.39
65985;HTU21D;52748;51.112;5.880;2023-04-19T11:55:36;21.55;45.59
65985;HTU21D;52748;51.112;5.880;2023-04-19T11:58:02;21.65;45.58
65985;HTU21D;52748;51.112;5.880;2023-04-19T12:00:30;21.62;45.72
65985;HTU21D;52748;51.112;5.880;2023-04-19T12:02:57;21.63;45.87
65985;HTU21D;52748;51.112;5.880;2023-04-19T12:05:23;21.64;46.06
65985;HTU21D;52748;51.112;5.880;2023-04-19T12:08:04;21.66;46.11
65985;HTU21D;52748;51.112;5.880;2023-04-19T12:10:31;21.67;46.13
65985;HTU21D;52748;51.112;5.880;2023-04-19T12:12:57;21.67;46.09
65985;HTU21D;52748;51.112;5.880;2023-04-19T12:15:42;21.68;46.06
65985;HTU21D;52748;51.112;5.880;2023-04-19T12:18:08;21.69;45.99
65985;HTU21D;52748;51.112;5.880;2023-04-19T12:20:36;21.70;45.87
65985;HTU21D;52748;51.112;5.880;2023-04-19T12:23:03;21.70;45.81
65985;HTU21D;52748;51.112;5.880;2023-04-19T12:25:30;21.73;45.77
65985;HTU21D;52748;51.112;5.880;2023-04-19T12:27:56;21.72;45.74
65985;HTU21D;52748;51.112;5.880;2023-04-19T12:30:22;21.74;45.69
65985;HTU21D;52748;51.112;5.880;2023-04-19T12:32:48;21.76;45.63
65985;HTU21D;52748;51.112;5.880;2023-04-19T12:35:16;21.76;45.54
65985;HTU21D;52748;51.112;5.880;2023-04-19T12:37:42;21.76;45.34
65985;HTU21D;52748;51.112;5.880;2023-04-19T12:40:08;21.78;45.19
65985;HTU21D;52748;51.112;5.880;2023-04-19T12:42:34;21.78;45.08
65985;HTU21D;52748;51.112;5.880;2023-04-19T12:45:00;21.78;44.90
65985;HTU21D;52748;51.112;5.880;2023-04-19T12:47:26;21.80;44.73
65985;HTU21D;52748;51.112;5.880;2023-04-19T12:49:52;21.79;44.62
65985;HTU21D;52748;51.112;5.880;2023-04-19T12:52:18;21.79;44.56
65985;HTU21D;52748;51.112;5.880;2023-04-19T12:54:44;21.81;44.39
65985;HTU21D;52748;51.112;5.880;2023-04-19T12:57:09;21.81;44.32
65985;HTU21D;52748;51.112;5.880;2023-04-19T12:59:35;21.81;44.21
65985;HTU21D;52748;51.112;5.880;2023-04-19T13:02:01;21.80;44.09
65985;HTU21D;52748;51.112;5.880;2023-04-19T13:04:27;21.82;44.01
65985;HTU21D;52748;51.112;5.880;2023-04-19T13:06:53;21.82;43.93
65985;HTU21D;52748;51.112;5.880;2023-04-19T13:09:18;21.82;43.90
65985;HTU21D;52748;51.112;5.880;2023-04-19T13:11:44;21.83;43.72
65985;HTU21D;52748;51.112;5.880;2023-04-19T13:14:10;21.84;43.62
65985;HTU21D;52748;51.112;5.880;2023-04-19T13:16:36;21.83;43.53
65985;HTU21D;52748;51.112;5.880;2023-04-19T13:19:05;21.81;43.74
65985;HTU21D;52748;51.112;5.880;2023-04-19T13:21:30;21.82;44.85
65985;HTU21D;52748;51.112;5.880;2023-04-19T13:23:59;21.83;45.38
65985;HTU21D;52748;51.112;5.880;2023-04-19T13:26:25;21.84;45.55
65985;HTU21D;52748;51.112;5.880;2023-04-19T13:28:51;21.87;45.44
65985;HTU21D;52748;51.112;5.880;2023-04-19T13:31:17;21.87;45.38
65985;HTU21D;52748;51.112;5.880;2023-04-19T13:33:43;21.87;45.32
65985;HTU21D;52748;51.112;5.880;2023-04-19T13:36:09;21.88;45.23
65985;HTU21D;52748;51.112;5.880;2023-04-19T13:38:34;21.88;45.41
65985;HTU21D;52748;51.112;5.880;2023-04-19T13:41:03;21.85;45.70
65985;HTU21D;52748;51.112;5.880;2023-04-19T13:43:29;21.87;45.70
65985;HTU21D;52748;51.112;5.880;2023-04-19T13:45:55;21.85;45.80
65985;HTU21D;52748;51.112;5.880;2023-04-19T13:48:21;21.87;45.85
65985;HTU21D;52748;51.112;5.880;2023-04-19T13:50:46;21.87;45.77
65985;HTU21D;52748;51.112;5.880;2023-04-19T13:53:12;21.87;45.63
65985;HTU21D;52748;51.112;5.880;2023-04-19T13:55:38;21.88;45.60
65985;HTU21D;52748;51.112;5.880;2023-04-19T13:58:04;21.91;45.46
65985;HTU21D;52748;51.112;5.880;2023-04-19T14:00:30;21.89;45.50
65985;HTU21D;52748;51.112;5.880;2023-04-19T14:02:55;21.90;45.45
65985;HTU21D;52748;51.112;5.880;2023-04-19T14:05:21;21.91;45.49
65985;HTU21D;52748;51.112;5.880;2023-04-19T14:07:47;21.92;45.41
65985;HTU21D;52748;51.112;5.880;2023-04-19T14:10:13;21.93;45.27
65985;HTU21D;52748;51.112;5.880;2023-04-19T14:12:39;21.92;45.28
65985;HTU21D;52748;51.112;5.880;2023-04-19T14:15:05;21.93;45.22
65985;HTU21D;52748;51.112;5.880;2023-04-19T14:17:31;21.94;45.13
65985;HTU21D;52748;51.112;5.880;2023-04-19T14:19:57;21.94;45.13
65985;HTU21D;52748;51.112;5.880;2023-04-19T14:22:23;21.94;45.14
65985;HTU21D;52748;51.112;5.880;2023-04-19T14:24:48;21.93;45.11
65985;HTU21D;52748;51.112;5.880;2023-04-19T14:27:14;21.94;45.12
65985;HTU21D;52748;51.112;5.880;2023-04-19T14:29:40;21.95;45.05
65985;HTU21D;52748;51.112;5.880;2023-04-19T14:32:06;21.94;45.15
65985;HTU21D;52748;51.112;5.880;2023-04-19T14:34:32;21.94;43.26
65985;HTU21D;52748;51.112;5.880;2023-04-19T14:36:58;21.87;35.56
65985;HTU21D;52748;51.112;5.880;2023-04-19T14:39:24;21.83;39.64
65985;HTU21D;52748;51.112;5.880;2023-04-19T14:41:50;21.79;41.25
65985;HTU21D;52748;51.112;5.880;2023-04-19T14:44:15;21.74;42.02
65985;HTU21D;52748;51.112;5.880;2023-04-19T14:46:41;21.70;42.42
65985;HTU21D;52748;51.112;5.880;2023-04-19T14:49:07;21.69;42.14
65985;HTU21D;52748;51.112;5.880;2023-04-19T14:51:33;21.67;42.95
65985;HTU21D;52748;51.112;5.880;2023-04-19T14:53:58;21.61;43.57
65985;HTU21D;52748;51.112;5.880;2023-04-19T14:56:24;21.59;43.95
65985;HTU21D;52748;51.112;5.880;2023-04-19T14:58:56;21.53;44.26
65985;HTU21D;52748;51.112;5.880;2023-04-19T15:01:22;21.49;44.60
65985;HTU21D;52748;51.112;5.880;2023-04-19T15:03:48;21.47;44.84
65985;HTU21D;52748;51.112;5.880;2023-04-19T15:06:14;21.45;45.02
65985;HTU21D;52748;51.112;5.880;2023-04-19T15:08:40;21.45;44.73
65985;HTU21D;52748;51.112;5.880;2023-04-19T15:11:08;21.46;44.34
65985;HTU21D;52748;51.112;5.880;2023-04-19T15:13:34;21.46;43.87
65985;HTU21D;52748;51.112;5.880;2023-04-19T15:16:00;21.49;44.19
65985;HTU21D;52748;51.112;5.880;2023-04-19T15:18:28;21.52;42.97
65985;HTU21D;52748;51.112;5.880;2023-04-19T15:20:54;21.54;42.41
65985;HTU21D;52748;51.112;5.880;2023-04-19T15:23:22;21.53;39.73
65985;HTU21D;52748;51.112;5.880;2023-04-19T15:25:48;21.48;33.72
65985;HTU21D;52748;51.112;5.880;2023-04-19T15:28:14;21.42;30.40
65985;HTU21D;52748;51.112;5.880;2023-04-19T15:30:40;21.38;28.71
65985;HTU21D;52748;51.112;5.880;2023-04-19T15:33:06;21.34;27.35